createdAt,value
2022-09-23T00:00:34.134Z,88.80
2022-09-23T00:03:00.854Z,89.00
2022-09-23T00:05:28.144Z,89.10
2022-09-23T00:07:57.771Z,89.00
2022-09-23T00:10:25.292Z,89.10
2022-09-23T00:12:51.918Z,89.20
2022-09-23T00:15:18.507Z,89.30
2022-09-23T00:17:45.176Z,89.30
2022-09-23T00:20:11.901Z,89.30
2022-09-23T00:22:38.903Z,89.20
2022-09-23T00:25:07.054Z,89.30
2022-09-23T00:27:34.752Z,89.60
2022-09-23T00:30:02.195Z,89.60
2022-09-23T00:32:28.767Z,89.80
2022-09-23T00:34:57.304Z,89.90
2022-09-23T00:37:23.862Z,90.00
2022-09-23T00:39:50.487Z,90.00
2022-09-23T00:42:18.611Z,90.00
2022-09-23T00:44:50.384Z,90.10
2022-09-23T00:47:16.948Z,90.10
2022-09-23T00:49:45.067Z,90.10
2022-09-23T00:52:14.744Z,90.10
2022-09-23T00:54:41.777Z,90.10
2022-09-23T00:57:09.159Z,90.20
2022-09-23T00:59:36.183Z,90.20
2022-09-23T01:02:03.194Z,90.10
2022-09-23T01:04:30.082Z,90.20
2022-09-23T01:06:56.700Z,90.20
2022-09-23T01:09:23.948Z,90.20
2022-09-23T01:11:50.507Z,90.30
2022-09-23T01:14:29.185Z,90.30
2022-09-23T01:17:03.215Z,90.30
2022-09-23T01:19:29.912Z,90.40
2022-09-23T01:22:15.248Z,90.30
2022-09-23T01:24:51.020Z,90.40
2022-09-23T01:27:38.022Z,90.40
2022-09-23T01:30:04.615Z,90.40
2022-09-23T01:32:49.708Z,90.40
2022-09-23T01:35:31.550Z,90.50
2022-09-23T01:38:04.206Z,90.60
2022-09-23T01:40:38.392Z,90.60
2022-09-23T01:43:11.290Z,90.60
2022-09-23T01:45:47.827Z,90.60
2022-09-23T01:48:18.352Z,90.60
2022-09-23T01:50:58.262Z,90.60
2022-09-23T01:53:32.823Z,90.70
2022-09-23T01:56:02.554Z,90.70
2022-09-23T01:58:33.885Z,90.70
2022-09-23T02:01:02.016Z,90.70
2022-09-23T02:03:37.047Z,90.70
2022-09-23T02:06:12.969Z,90.80
2022-09-23T02:09:02.459Z,90.80
2022-09-23T02:11:30.237Z,90.80
2022-09-23T02:14:02.325Z,90.80
2022-09-23T02:16:40.208Z,90.80
2022-09-23T02:19:07.237Z,90.80
2022-09-23T02:21:35.670Z,90.90
2022-09-23T02:24:22.493Z,90.90
2022-09-23T02:26:51.785Z,90.90
2022-09-23T02:29:30.617Z,91.00
2022-09-23T02:31:57.308Z,91.00
2022-09-23T02:34:23.919Z,90.90
2022-09-23T02:36:59.344Z,90.90
2022-09-23T02:39:30.374Z,90.90
2022-09-23T02:41:56.971Z,91.00
2022-09-23T02:44:23.988Z,91.00
2022-09-23T02:46:52.827Z,91.00
2022-09-23T02:49:23.930Z,91.20
2022-09-23T02:51:51.058Z,91.10
2022-09-23T02:54:22.504Z,91.10
2022-09-23T02:56:49.508Z,91.20
2022-09-23T02:59:19.371Z,91.30
2022-09-23T03:01:59.612Z,91.30
2022-09-23T03:04:35.078Z,91.30
2022-09-23T03:07:16.624Z,91.40
2022-09-23T03:09:55.766Z,91.30
2022-09-23T03:12:41.074Z,91.40
2022-09-23T03:15:21.395Z,91.50
2022-09-23T03:18:10.984Z,91.50
2022-09-23T03:20:40.995Z,91.50
2022-09-23T03:23:08.842Z,91.50
2022-09-23T03:25:37.197Z,91.50
2022-09-23T03:28:04.795Z,91.50
2022-09-23T03:30:35.436Z,91.60
2022-09-23T03:33:03.207Z,91.60
2022-09-23T03:35:31.953Z,91.70
2022-09-23T03:37:58.754Z,91.80
2022-09-23T03:40:28.536Z,92.00
2022-09-23T03:42:56.087Z,91.90
2022-09-23T03:45:25.988Z,92.20
2022-09-23T03:47:52.684Z,91.90
2022-09-23T03:50:20.014Z,92.50
2022-09-23T03:52:47.433Z,92.10
2022-09-23T03:55:14.529Z,92.10
2022-09-23T03:57:41.163Z,92.60
2022-09-23T04:00:08.271Z,92.30
2022-09-23T04:02:41.184Z,92.50
2022-09-23T04:05:08.260Z,92.70
2022-09-23T04:07:34.833Z,92.50
2022-09-23T04:10:01.433Z,92.50
2022-09-23T04:12:28.038Z,92.30
2022-09-23T04:14:54.585Z,92.50
2022-09-23T04:17:21.203Z,92.80
2022-09-23T04:19:47.807Z,92.50
2022-09-23T04:22:14.447Z,92.50
2022-09-23T04:24:41.035Z,92.60
2022-09-23T04:27:07.619Z,92.50
2022-09-23T04:29:34.227Z,92.50
2022-09-23T04:32:00.947Z,92.50
2022-09-23T04:34:27.663Z,92.60
2022-09-23T04:36:54.234Z,92.50
2022-09-23T04:39:20.907Z,92.60
2022-09-23T04:41:47.503Z,92.70
2022-09-23T04:44:14.903Z,92.60
2022-09-23T04:46:42.201Z,92.50
2022-09-23T04:49:08.863Z,92.70
2022-09-23T04:51:35.559Z,92.60
2022-09-23T04:54:02.653Z,92.50
2022-09-23T04:56:32.520Z,92.60
2022-09-23T04:59:01.591Z,92.70
2022-09-23T05:01:32.106Z,92.80
2022-09-23T05:04:02.577Z,92.80
2022-09-23T05:06:29.755Z,93.00
2022-09-23T05:08:57.168Z,92.90
2022-09-23T05:11:24.102Z,93.00
2022-09-23T05:13:51.830Z,93.20
2022-09-23T05:16:19.222Z,93.10
2022-09-23T05:18:46.546Z,93.10
2022-09-23T05:21:14.051Z,93.10
2022-09-23T05:23:40.997Z,93.20
2022-09-23T05:26:08.698Z,93.30
2022-09-23T05:28:37.383Z,93.70
2022-09-23T05:31:05.264Z,93.30
2022-09-23T05:33:35.783Z,93.40
2022-09-23T05:36:03.093Z,93.40
2022-09-23T05:38:30.100Z,93.50
2022-09-23T05:41:01.095Z,93.60
2022-09-23T05:43:28.087Z,93.70
2022-09-23T05:46:08.230Z,93.80
2022-09-23T05:48:35.801Z,93.90
2022-09-23T05:51:03.358Z,94.20
2022-09-23T05:53:30.756Z,93.90
2022-09-23T05:55:57.654Z,94.10
2022-09-23T05:58:24.538Z,94.20
2022-09-23T06:00:51.411Z,94.10
2022-09-23T06:03:20.054Z,94.20
2022-09-23T06:05:47.279Z,94.20
2022-09-23T06:08:14.292Z,94.10
2022-09-23T06:10:42.026Z,94.50
2022-09-23T06:13:09.021Z,94.10
2022-09-23T06:15:36.373Z,94.30
2022-09-23T06:18:03.324Z,94.10
2022-09-23T06:20:29.924Z,94.40
2022-09-23T06:23:02.392Z,94.60
2022-09-23T06:25:29.199Z,94.40
2022-09-23T06:27:56.862Z,94.30
2022-09-23T06:30:24.618Z,94.30
2022-09-23T06:32:54.999Z,94.30
2022-09-23T06:35:27.402Z,94.40
2022-09-23T06:37:54.842Z,94.30
2022-09-23T06:40:22.520Z,94.20
2022-09-23T06:42:56.581Z,94.30
2022-09-23T06:45:23.407Z,94.60
2022-09-23T06:47:56.072Z,94.30
2022-09-23T06:50:23.943Z,94.40
2022-09-23T06:52:51.395Z,94.60
2022-09-23T06:55:17.983Z,94.50
2022-09-23T06:57:44.552Z,95.10
2022-09-23T07:00:11.876Z,95.40
2022-09-23T07:02:40.360Z,95.30
2022-09-23T07:05:07.220Z,95.30
2022-09-23T07:07:36.717Z,95.70
2022-09-23T07:10:05.744Z,95.50
2022-09-23T07:12:32.941Z,95.50
2022-09-23T07:14:59.516Z,95.40
2022-09-23T07:17:26.451Z,95.90
2022-09-23T07:19:54.888Z,95.90
2022-09-23T07:22:22.391Z,95.70
2022-09-23T07:24:48.952Z,96.40
2022-09-23T07:27:19.819Z,96.10
2022-09-23T07:29:49.501Z,96.00
2022-09-23T07:32:16.583Z,96.00
2022-09-23T07:34:44.296Z,96.00
2022-09-23T07:37:10.919Z,96.10
2022-09-23T07:39:37.553Z,95.90
2022-09-23T07:42:05.175Z,95.80
2022-09-23T07:44:32.156Z,96.10
2022-09-23T07:46:59.189Z,95.70
2022-09-23T07:49:26.541Z,95.80
2022-09-23T07:51:53.438Z,95.60
2022-09-23T07:54:19.988Z,95.70
2022-09-23T07:56:47.068Z,95.70
2022-09-23T07:59:16.785Z,95.40
2022-09-23T08:01:54.016Z,95.30
2022-09-23T08:04:20.639Z,95.30
2022-09-23T08:06:51.967Z,95.30
2022-09-23T08:09:19.290Z,95.10
2022-09-23T08:11:46.387Z,95.00
2022-09-23T08:14:13.933Z,94.70
2022-09-23T08:16:41.102Z,94.50
2022-09-23T08:19:08.363Z,94.50
2022-09-23T08:21:35.150Z,94.30
2022-09-23T08:24:01.869Z,93.90
2022-09-23T08:26:28.588Z,93.70
2022-09-23T08:28:56.397Z,93.20
2022-09-23T08:31:23.620Z,93.40
2022-09-23T08:33:53.808Z,93.40
2022-09-23T08:36:20.367Z,93.20
2022-09-23T08:38:46.961Z,93.30
2022-09-23T08:41:22.552Z,93.30
2022-09-23T08:43:52.243Z,93.20
2022-09-23T08:46:26.106Z,93.10
2022-09-23T08:48:53.370Z,93.20
2022-09-23T08:51:42.401Z,93.10
2022-09-23T08:54:10.760Z,92.90
2022-09-23T08:56:38.654Z,92.70
2022-09-23T08:59:08.558Z,92.60
2022-09-23T09:01:49.768Z,92.30
2022-09-23T09:04:35.363Z,92.10
2022-09-23T09:07:34.792Z,91.70
2022-09-23T09:10:14.930Z,91.60
2022-09-23T09:12:44.611Z,91.40
2022-09-23T09:15:13.188Z,91.10
2022-09-23T09:17:39.800Z,90.80
2022-09-23T09:20:06.447Z,91.00
2022-09-23T09:22:47.963Z,89.40
2022-09-23T09:25:24.027Z,90.00
2022-09-23T09:27:51.475Z,90.20
2022-09-23T09:30:18.535Z,89.70
2022-09-23T09:32:52.069Z,90.20
2022-09-23T09:35:24.485Z,90.30
2022-09-23T09:37:53.561Z,89.90
2022-09-23T09:40:20.642Z,89.10
2022-09-23T09:42:49.351Z,89.00
2022-09-23T09:45:19.777Z,89.50
2022-09-23T09:48:05.752Z,89.90
2022-09-23T09:50:52.686Z,89.90
2022-09-23T09:53:25.456Z,89.10
2022-09-23T09:56:06.057Z,88.30
2022-09-23T09:58:41.482Z,86.50
2022-09-23T10:01:08.239Z,87.50
2022-09-23T10:03:39.598Z,87.60
2022-09-23T10:06:20.581Z,88.10
2022-09-23T10:08:48.361Z,88.70
2022-09-23T10:11:16.576Z,88.90
2022-09-23T10:14:00.755Z,87.30
2022-09-23T10:16:27.732Z,87.30
2022-09-23T10:18:56.856Z,83.80
2022-09-23T10:21:27.966Z,81.10
2022-09-23T10:23:57.894Z,81.00
2022-09-23T10:26:31.020Z,82.10
2022-09-23T10:29:01.140Z,83.30
2022-09-23T10:31:29.108Z,83.10
2022-09-23T10:33:57.570Z,80.40
2022-09-23T10:36:24.324Z,80.00
2022-09-23T10:38:54.461Z,79.80
2022-09-23T10:41:50.144Z,79.80
2022-09-23T10:44:45.560Z,80.90
2022-09-23T10:47:12.983Z,81.60
2022-09-23T10:50:03.704Z,81.50
2022-09-23T10:52:38.955Z,81.40
2022-09-23T10:55:10.538Z,80.00
2022-09-23T10:57:45.968Z,80.40
2022-09-23T11:00:37.763Z,81.30
2022-09-23T11:03:17.869Z,80.30
2022-09-23T11:06:11.131Z,80.30
2022-09-23T11:08:40.521Z,80.30
2022-09-23T11:11:21.747Z,80.80
2022-09-23T11:14:00.982Z,81.20
2022-09-23T11:16:27.614Z,81.10
2022-09-23T11:19:02.083Z,80.90
2022-09-23T11:21:28.642Z,80.90
2022-09-23T11:24:15.737Z,81.20
2022-09-23T11:26:53.023Z,81.90
2022-09-23T11:29:25.708Z,82.40
2022-09-23T11:32:11.119Z,82.80
2022-09-23T11:34:37.665Z,82.90
2022-09-23T11:37:04.524Z,82.60
2022-09-23T11:39:35.476Z,82.30
2022-09-23T11:42:03.067Z,82.70
2022-09-23T11:44:33.567Z,82.70
2022-09-23T11:47:08.985Z,81.30
2022-09-23T11:49:41.497Z,82.30
2022-09-23T11:52:08.038Z,81.70
2022-09-23T11:54:47.012Z,81.10
2022-09-23T11:57:18.092Z,81.40
2022-09-23T12:02:23.690Z,79.80
2022-09-23T12:05:31.065Z,80.20
2022-09-23T12:08:01.185Z,78.60
2022-09-23T12:10:37.419Z,78.80
2022-09-23T12:13:04.785Z,77.40
2022-09-23T12:15:37.433Z,77.70
2022-09-23T12:18:06.620Z,79.10
2022-09-23T12:20:42.090Z,78.90
2022-09-23T12:23:17.431Z,77.80
2022-09-23T12:25:46.389Z,75.50
2022-09-23T12:28:29.651Z,77.70
2022-09-23T12:30:58.860Z,77.80
2022-09-23T12:33:27.537Z,76.40
2022-09-23T12:35:55.124Z,76.70
2022-09-23T12:38:27.791Z,75.60
2022-09-23T12:40:55.775Z,76.20
2022-09-23T12:43:33.222Z,76.20
2022-09-23T12:46:19.792Z,76.20
2022-09-23T12:48:58.085Z,76.00
2022-09-23T12:51:25.608Z,74.50
2022-09-23T12:53:55.318Z,75.70
2022-09-23T12:56:33.964Z,75.90
2022-09-23T12:59:15.955Z,76.40
2022-09-23T13:01:43.043Z,76.30
2022-09-23T13:04:47.239Z,75.80
2022-09-23T13:07:18.344Z,75.80
2022-09-23T13:09:47.346Z,75.60
2022-09-23T13:12:18.180Z,75.20
2022-09-23T13:14:46.368Z,75.20
2022-09-23T13:17:23.961Z,76.00
2022-09-23T13:19:58.469Z,75.20
2022-09-23T13:23:01.295Z,75.50
2022-09-23T13:25:29.188Z,75.60
2022-09-23T13:27:57.515Z,75.80
2022-09-23T13:30:26.770Z,75.90
2022-09-23T13:33:10.018Z,76.10
2022-09-23T13:35:42.710Z,75.50
2022-09-23T13:38:10.920Z,76.20
2022-09-23T13:40:38.274Z,76.50
2022-09-23T13:43:12.268Z,76.40
2022-09-23T13:45:41.293Z,76.10
2022-09-23T13:48:17.545Z,77.40
2022-09-23T13:50:48.459Z,76.80
2022-09-23T13:53:28.555Z,77.30
2022-09-23T13:56:01.441Z,77.70
2022-09-23T13:58:28.973Z,76.80
2022-09-23T14:00:55.711Z,76.30
2022-09-23T14:03:27.149Z,75.40
2022-09-23T14:05:57.396Z,75.50
2022-09-23T14:08:24.559Z,74.60
2022-09-23T14:10:51.358Z,74.70
2022-09-23T14:13:26.309Z,74.20
2022-09-23T14:15:54.913Z,74.00
2022-09-23T14:18:30.049Z,74.50
2022-09-23T14:20:56.628Z,74.20
2022-09-23T14:23:23.244Z,73.90
2022-09-23T14:25:51.251Z,74.30
2022-09-23T14:28:23.351Z,74.80
2022-09-23T14:30:51.468Z,74.20
2022-09-23T14:33:22.414Z,74.60
2022-09-23T14:35:51.200Z,75.50
2022-09-23T14:38:44.832Z,76.20
2022-09-23T14:41:25.084Z,76.90
2022-09-23T14:43:54.556Z,77.80
2022-09-23T14:46:22.369Z,77.50
2022-09-23T14:48:53.998Z,78.80
2022-09-23T14:51:21.055Z,79.30
2022-09-23T14:53:48.654Z,80.00
2022-09-23T14:56:16.958Z,79.80
2022-09-23T14:58:52.369Z,81.10
2022-09-23T15:01:22.428Z,81.00
2022-09-23T15:03:49.513Z,82.00
2022-09-23T15:06:16.584Z,82.30
2022-09-23T15:08:44.132Z,82.30
2022-09-23T15:11:10.915Z,83.30
2022-09-23T15:13:39.605Z,84.20
2022-09-23T15:16:06.665Z,83.60
2022-09-23T15:18:34.546Z,84.70
2022-09-23T15:21:02.930Z,84.50
2022-09-23T15:23:34.341Z,86.10
2022-09-23T15:26:06.365Z,85.00
2022-09-23T15:28:33.013Z,85.80
2022-09-23T15:30:59.695Z,85.90
2022-09-23T15:33:28.199Z,86.00
2022-09-23T15:35:54.796Z,85.80
2022-09-23T15:38:21.925Z,86.90
2022-09-23T15:40:49.240Z,88.00
2022-09-23T15:43:20.483Z,87.50
2022-09-23T15:45:52.055Z,87.10
2022-09-23T15:48:22.634Z,86.60
2022-09-23T15:50:50.516Z,87.10
2022-09-23T15:53:18.733Z,87.80
2022-09-23T15:55:45.479Z,88.10
2022-09-23T15:58:12.102Z,88.30
2022-09-23T16:00:39.030Z,88.80
2022-09-23T16:03:06.590Z,90.10
2022-09-23T16:05:36.683Z,89.70
2022-09-23T16:08:08.734Z,89.50
2022-09-23T16:10:36.521Z,89.20
2022-09-23T16:13:04.255Z,90.20
2022-09-23T16:15:31.920Z,90.30
2022-09-23T16:17:59.457Z,90.40
2022-09-23T16:20:29.370Z,90.00
2022-09-23T16:23:04.826Z,90.60
2022-09-23T16:25:35.932Z,91.10
2022-09-23T16:28:03.696Z,91.70
2022-09-23T16:30:31.213Z,91.40
2022-09-23T16:32:58.654Z,92.30
2022-09-23T16:35:26.803Z,91.80
2022-09-23T16:37:53.488Z,93.30
2022-09-23T16:40:21.135Z,92.60
2022-09-23T16:42:52.247Z,92.70
2022-09-23T16:45:22.218Z,92.80
2022-09-23T16:47:50.867Z,93.60
2022-09-23T16:50:18.557Z,94.20
2022-09-23T16:52:45.368Z,95.30
2022-09-23T16:55:12.992Z,95.20
2022-09-23T16:57:39.749Z,94.90
2022-09-23T17:00:30.699Z,94.70
2022-09-23T17:03:16.232Z,95.30
2022-09-23T17:05:46.579Z,97.00
2022-09-23T17:08:14.790Z,96.80
2022-09-23T17:10:42.083Z,97.70
2022-09-23T17:13:09.211Z,97.60
2022-09-23T17:15:37.161Z,97.60
2022-09-23T17:18:05.068Z,97.50
2022-09-23T17:20:31.663Z,98.50
2022-09-23T17:22:58.398Z,98.20
2022-09-23T17:25:25.368Z,97.90
2022-09-23T17:27:52.517Z,98.40
2022-09-23T17:30:19.085Z,98.00
2022-09-23T17:32:45.656Z,98.30
2022-09-23T17:35:12.212Z,98.40
2022-09-23T17:37:38.880Z,99.00
2022-09-23T17:40:05.810Z,99.80
2022-09-23T17:42:32.756Z,99.30
2022-09-23T17:44:59.802Z,99.30
2022-09-23T17:47:26.905Z,98.90
2022-09-23T17:49:54.339Z,99.10
2022-09-23T17:52:20.900Z,99.30
2022-09-23T17:54:47.882Z,99.30
2022-09-23T17:57:14.598Z,98.80
2022-09-23T17:59:41.264Z,99.60
2022-09-23T18:02:08.723Z,99.30
2022-09-23T18:04:37.185Z,99.10
2022-09-23T18:07:03.757Z,99.00
2022-09-23T18:09:30.392Z,99.00
2022-09-23T18:11:57.751Z,99.60
2022-09-23T18:14:26.833Z,99.10
2022-09-23T18:16:53.979Z,99.60
2022-09-23T18:19:21.633Z,99.30
2022-09-23T18:21:53.499Z,99.30
2022-09-23T18:24:35.438Z,99.40
2022-09-23T18:27:02.283Z,99.70
2022-09-23T18:29:28.918Z,99.70
2022-09-23T18:31:55.886Z,99.60
2022-09-23T18:34:23.747Z,99.70
2022-09-23T18:36:50.838Z,99.60
2022-09-23T18:39:17.527Z,99.40
2022-09-23T18:41:44.094Z,99.50
2022-09-23T18:44:10.881Z,99.80
2022-09-23T18:46:37.567Z,99.60
2022-09-23T18:49:22.941Z,99.40
2022-09-23T18:51:51.177Z,99.30
2022-09-23T18:54:19.251Z,99.70
2022-09-23T18:56:46.368Z,99.50
2022-09-23T18:59:17.656Z,99.90
2022-09-23T19:01:45.657Z,99.60
2022-09-23T19:04:13.832Z,99.60
2022-09-23T19:06:40.491Z,99.90
2022-09-23T19:09:07.528Z,99.90
2022-09-23T19:11:36.192Z,99.90
2022-09-23T19:14:04.715Z,99.80
2022-09-23T19:16:31.835Z,99.90
2022-09-23T19:19:02.066Z,99.90
2022-09-23T19:21:29.483Z,99.90
2022-09-23T19:24:03.653Z,99.70
2022-09-23T19:26:32.307Z,99.90
2022-09-23T19:28:59.878Z,99.90
2022-09-23T19:31:33.787Z,99.70
2022-09-23T19:34:01.699Z,99.70
2022-09-23T19:36:29.611Z,99.80
2022-09-23T19:38:57.442Z,99.90
2022-09-23T19:41:24.905Z,99.90
2022-09-23T19:43:52.170Z,99.90
2022-09-23T19:46:19.373Z,99.90
2022-09-23T19:48:46.792Z,99.90
2022-09-23T19:51:13.571Z,99.90
2022-09-23T19:53:41.387Z,99.90
2022-09-23T19:56:08.583Z,99.90
2022-09-23T19:58:35.465Z,99.90
2022-09-23T20:01:06.907Z,99.90
2022-09-23T20:03:33.691Z,99.90
2022-09-23T20:06:00.308Z,99.90
2022-09-23T20:08:27.097Z,99.90
2022-09-23T20:10:54.912Z,99.90
2022-09-23T20:13:22.213Z,99.90
2022-09-23T20:15:49.007Z,99.90
2022-09-23T20:18:15.618Z,99.90
2022-09-23T20:20:42.254Z,99.90
2022-09-23T20:23:08.826Z,99.90
2022-09-23T20:25:53.950Z,99.90
2022-09-23T20:28:21.229Z,99.90
2022-09-23T20:30:48.488Z,99.90
2022-09-23T20:33:15.123Z,99.90
2022-09-23T20:35:43.646Z,99.90
2022-09-23T20:38:10.359Z,99.90
2022-09-23T20:40:38.535Z,99.90
2022-09-23T20:43:05.287Z,99.90
2022-09-23T20:45:31.966Z,99.90
2022-09-23T20:48:01.289Z,99.90
2022-09-23T20:50:27.909Z,99.90
2022-09-23T20:52:54.501Z,99.90
2022-09-23T20:55:21.091Z,99.90
2022-09-23T20:57:48.496Z,99.90
2022-09-23T21:00:15.474Z,99.90
2022-09-23T21:02:43.278Z,99.90
2022-09-23T21:05:10.436Z,99.90
2022-09-23T21:07:37.518Z,99.90
2022-09-23T21:10:06.804Z,99.90
2022-09-23T21:12:33.385Z,99.90
2022-09-23T21:14:59.964Z,99.90
2022-09-23T21:17:26.798Z,99.90
2022-09-23T21:19:53.387Z,99.90
2022-09-23T21:22:19.971Z,99.90
2022-09-23T21:25:31.558Z,99.90
2022-09-23T21:27:37.131Z,99.90
2022-09-23T21:30:04.336Z,99.90
2022-09-23T21:32:31.160Z,99.90
2022-09-23T21:34:57.722Z,99.90
2022-09-23T21:37:25.393Z,99.90
2022-09-23T21:40:18.359Z,99.90
2022-09-23T21:42:45.028Z,99.90
2022-09-23T21:45:11.612Z,99.90
2022-09-23T21:47:39.203Z,99.90
2022-09-23T21:50:06.139Z,99.90
2022-09-23T21:52:32.735Z,99.90
2022-09-23T21:54:59.301Z,99.90
2022-09-23T21:57:29.232Z,99.90
2022-09-23T21:59:55.851Z,99.90
2022-09-23T22:02:23.382Z,99.90
2022-09-23T22:04:49.932Z,99.90
2022-09-23T22:07:16.478Z,99.90
2022-09-23T22:09:46.789Z,99.90
2022-09-23T22:12:13.384Z,99.90
2022-09-23T22:14:40.055Z,99.90
2022-09-23T22:17:07.721Z,99.90
2022-09-23T22:19:35.879Z,99.90
2022-09-23T22:22:05.671Z,99.90
2022-09-23T22:24:32.242Z,99.90
2022-09-23T22:26:58.948Z,99.90
2022-09-23T22:29:44.182Z,99.90
2022-09-23T22:32:30.175Z,99.90
2022-09-23T22:34:57.270Z,99.90
2022-09-23T22:37:25.569Z,99.90
2022-09-23T22:39:52.284Z,99.90
2022-09-23T22:42:21.152Z,99.90
2022-09-23T22:44:48.370Z,99.90
2022-09-23T22:47:14.951Z,99.90
2022-09-23T22:49:42.025Z,99.90
2022-09-23T22:52:09.022Z,99.90
2022-09-23T22:54:36.328Z,99.90
2022-09-23T22:57:06.550Z,99.90
2022-09-23T22:59:33.416Z,99.90
2022-09-23T23:02:00.348Z,99.90
2022-09-23T23:04:27.495Z,99.90
2022-09-23T23:06:54.090Z,99.90
2022-09-23T23:09:20.663Z,99.90
2022-09-23T23:11:47.356Z,99.90
2022-09-23T23:14:17.630Z,99.90
2022-09-23T23:16:45.142Z,99.90
2022-09-23T23:19:13.340Z,99.90
2022-09-23T23:21:43.124Z,99.90
2022-09-23T23:24:15.482Z,99.90
2022-09-23T23:26:42.479Z,99.90
2022-09-23T23:29:10.238Z,99.90
2022-09-23T23:31:37.096Z,99.90
2022-09-23T23:34:03.928Z,99.90
2022-09-23T23:36:31.026Z,99.90
2022-09-23T23:38:57.633Z,99.90
2022-09-23T23:41:24.203Z,99.90
2022-09-23T23:43:55.117Z,99.90
2022-09-23T23:46:21.755Z,99.90
2022-09-23T23:48:49.349Z,99.90
2022-09-23T23:51:16.299Z,99.90
2022-09-23T23:53:43.202Z,99.90
2022-09-23T23:56:09.748Z,99.90
2022-09-23T23:58:36.776Z,99.90
